Time;durP1;ratioP1;P1;durP2;ratioP2;P2;SDS_P1;SDS_P2;PMS_P1;PMS_P2;Temp;Humidity;BMP_temperature;BMP_pressure;BME280_temperature;BME280_humidity;BME280_pressure;Samples;Min_cycle;Max_cycle;Signal;HPM_P1;HPM_P2
2022/04/18 00:01:38;;;;;;;9.20;4.65;;;22.70;32.00;;;;;;6129462;28;80221;-71
2022/04/18 00:04:39;;;;;;;10.35;5.60;;;22.70;32.10;;;;;;6133712;28;80426;-72
2022/04/18 00:07:39;;;;;;;10.55;5.57;;;22.70;32.10;;;;;;6133939;28;80391;-70
2022/04/18 00:10:40;;;;;;;9.07;5.05;;;22.60;32.00;;;;;;6124900;28;80598;-71
2022/04/18 00:13:40;;;;;;;8.93;5.28;;;22.60;32.00;;;;;;6112405;28;81647;-71
2022/04/18 00:16:41;;;;;;;9.50;5.25;;;22.70;32.00;;;;;;6134568;28;80504;-71
2022/04/18 00:19:42;;;;;;;10.30;5.50;;;22.70;32.00;;;;;;6134368;28;82169;-71
2022/04/18 00:22:44;;;;;;;9.15;5.30;;;22.60;32.00;;;;;;6137506;28;80421;-71
2022/04/18 00:25:45;;;;;;;9.05;5.90;;;22.60;32.10;;;;;;6131218;28;80470;-72
2022/04/18 00:28:45;;;;;;;12.63;6.97;;;22.60;32.00;;;;;;6134544;28;80627;-72
2022/04/18 00:31:46;;;;;;;8.90;5.28;;;22.60;32.10;;;;;;6137066;28;80741;-72
2022/04/18 00:34:46;;;;;;;9.98;5.93;;;22.60;32.00;;;;;;6138545;28;81592;-72
2022/04/18 00:37:47;;;;;;;11.07;6.72;;;22.60;32.10;;;;;;6129014;28;80812;-71
2022/04/18 00:40:47;;;;;;;11.02;5.95;;;22.60;32.00;;;;;;6114474;28;80536;-72
2022/04/18 00:43:48;;;;;;;12.65;6.38;;;22.60;32.00;;;;;;6114318;28;80500;-72
2022/04/18 00:46:48;;;;;;;10.43;5.97;;;22.60;32.00;;;;;;6124741;28;82135;-72
2022/04/18 00:49:49;;;;;;;11.25;6.40;;;22.60;32.00;;;;;;6138000;28;80342;-72
2022/04/18 00:52:50;;;;;;;10.27;6.25;;;22.60;32.00;;;;;;6136168;28;81724;-71
2022/04/18 00:55:50;;;;;;;12.85;6.50;;;22.60;32.10;;;;;;6134710;28;80913;-71
2022/04/18 00:58:51;;;;;;;10.65;6.53;;;22.60;32.20;;;;;;6113546;28;80565;-71
2022/04/18 01:01:52;;;;;;;13.20;6.70;;;22.50;32.10;;;;;;6118723;28;80485;-71
2022/04/18 01:04:52;;;;;;;12.00;7.13;;;22.50;32.00;;;;;;6112580;28;83156;-71
2022/04/18 01:07:53;;;;;;;13.38;7.63;;;22.60;32.10;;;;;;6102158;28;83602;-71
2022/04/18 01:10:57;;;;;;;16.20;8.10;;;22.50;32.10;;;;;;6112025;28;80504;-72
2022/04/18 01:14:10;;;;;;;13.18;7.55;;;22.50;32.10;;;;;;6111302;28;80629;-72
2022/04/18 01:17:29;;;;;;;16.15;8.05;;;22.60;32.10;;;;;;6123489;28;80298;-71
2022/04/18 01:20:55;;;;;;;13.93;7.85;;;22.50;32.10;;;;;;6134979;28;83611;-72
2022/04/18 01:28:58;;;;;;;16.63;8.43;;;22.50;32.10;;;;;;6123669;28;83827;-72
2022/04/18 01:30:51;;;;;;;14.77;8.10;;;22.50;32.10;;;;;;6135532;28;83115;-72
2022/04/18 01:33:52;;;;;;;15.18;7.22;;;22.50;32.00;;;;;;6121102;28;83173;-73
2022/04/18 01:36:53;;;;;;;15.15;8.30;;;22.50;32.00;;;;;;6119007;28;81048;-72
2022/04/18 01:39:54;;;;;;;14.90;8.50;;;22.50;32.10;;;;;;6135093;28;82800;-72
2022/04/18 01:42:55;;;;;;;14.98;8.25;;;22.50;32.10;;;;;;6123038;28;83188;-72
2022/04/18 01:45:55;;;;;;;12.60;7.20;;;22.50;32.10;;;;;;6132606;28;80584;-72
2022/04/18 01:49:00;;;;;;;15.32;8.77;;;22.50;32.10;;;;;;6114976;28;83446;-71
2022/04/18 01:52:00;;;;;;;15.75;7.90;;;22.50;32.10;;;;;;6113811;28;82329;-71
2022/04/18 01:55:01;;;;;;;17.85;8.50;;;22.50;32.10;;;;;;6135071;28;83285;-72
2022/04/18 01:58:05;;;;;;;15.82;8.27;;;22.50;32.10;;;;;;6134611;28;81722;-72
2022/04/18 02:01:06;;;;;;;14.40;8.23;;;22.50;32.10;;;;;;6126898;28;83756;-72
2022/04/18 02:04:07;;;;;;;17.05;8.82;;;22.50;32.10;;;;;;6136759;28;80705;-71
2022/04/18 02:07:09;;;;;;;14.52;8.18;;;22.50;32.10;;;;;;6133677;28;83030;-70
2022/04/18 02:10:10;;;;;;;15.40;8.40;;;22.50;32.10;;;;;;6111041;28;83312;-71
2022/04/18 02:13:11;;;;;;;15.75;8.25;;;22.50;32.10;;;;;;6094593;28;86886;-70
2022/04/18 02:16:13;;;;;;;15.32;8.00;;;22.50;32.10;;;;;;6111044;28;83544;-71
2022/04/18 02:19:16;;;;;;;18.67;8.85;;;22.50;32.10;;;;;;6127949;28;82838;-70
2022/04/18 02:22:17;;;;;;;18.35;9.45;;;22.50;32.10;;;;;;6133561;28;83089;-71
2022/04/18 02:25:19;;;;;;;15.68;8.25;;;22.50;32.10;;;;;;6110602;28;80508;-71
2022/04/18 02:28:20;;;;;;;16.88;8.20;;;22.50;32.10;;;;;;6117846;28;82273;-72
2022/04/18 02:31:27;;;;;;;14.38;7.95;;;22.50;32.10;;;;;;6134284;28;81542;-71
2022/04/18 02:34:28;;;;;;;21.25;9.05;;;22.50;32.10;;;;;;6133567;28;83352;-72
2022/04/18 02:37:29;;;;;;;20.17;8.73;;;22.50;32.20;;;;;;6133721;28;83530;-72
2022/04/18 02:40:30;;;;;;;16.35;8.70;;;22.40;32.10;;;;;;6133705;28;80589;-72
2022/04/18 02:43:31;;;;;;;14.63;8.43;;;22.40;32.20;;;;;;6133803;28;81491;-72
2022/04/18 02:46:38;;;;;;;17.15;8.93;;;22.50;32.20;;;;;;6133906;28;82727;-72
2022/04/18 02:49:39;;;;;;;16.60;9.68;;;22.40;32.20;;;;;;6131255;28;82593;-71
2022/04/18 02:52:42;;;;;;;14.88;8.27;;;22.50;32.20;;;;;;6133779;28;83018;-71
2022/04/18 02:55:43;;;;;;;15.60;8.18;;;22.50;32.20;;;;;;6117497;28;83359;-72
2022/04/18 02:58:44;;;;;;;16.60;8.95;;;22.40;32.20;;;;;;6111727;28;83289;-72
2022/04/18 03:01:44;;;;;;;18.27;9.27;;;22.40;32.20;;;;;;6125069;28;83230;-72
2022/04/18 03:04:45;;;;;;;17.80;8.95;;;22.40;32.20;;;;;;6133350;28;81897;-71
2022/04/18 03:07:45;;;;;;;16.38;8.65;;;22.40;32.20;;;;;;6133272;28;83174;-71
2022/04/18 03:11:05;;;;;;;17.20;8.75;;;22.40;32.20;;;;;;6112180;28;82639;-71
2022/04/18 03:14:08;;;;;;;16.63;9.18;;;22.40;32.20;;;;;;6116388;28;82772;-72
2022/04/18 03:17:15;;;;;;;17.02;8.90;;;22.40;32.10;;;;;;6133293;28;84064;-72
2022/04/18 03:20:15;;;;;;;17.85;9.23;;;22.50;32.20;;;;;;6118318;28;80430;-71
2022/04/18 03:23:16;;;;;;;17.85;8.30;;;22.40;32.10;;;;;;6109712;28;82080;-72
2022/04/18 03:26:35;;;;;;;15.95;9.25;;;22.40;32.10;;;;;;6121288;28;80178;-72
2022/04/18 03:29:50;;;;;;;15.27;9.05;;;22.40;32.10;;;;;;6123665;28;83068;-72
2022/04/18 03:32:57;;;;;;;16.92;9.55;;;22.40;32.20;;;;;;6109907;28;82534;-72
2022/04/18 03:42:37;;;;;;;14.30;8.23;;;22.40;32.10;;;;;;6125940;28;83459;-72
2022/04/18 03:45:41;;;;;;;16.08;8.95;;;22.40;32.10;;;;;;6123688;28;82976;-73
2022/04/18 03:48:41;;;;;;;16.20;9.73;;;22.40;32.10;;;;;;6133517;28;82871;-72
2022/04/18 03:51:42;;;;;;;12.85;8.25;;;22.40;32.10;;;;;;6133317;28;80605;-72
2022/04/18 03:54:46;;;;;;;20.25;8.98;;;22.40;32.10;;;;;;6122553;28;80463;-72
2022/04/18 03:57:51;;;;;;;15.27;8.93;;;22.40;32.20;;;;;;6112087;28;81479;-72
2022/04/18 04:00:51;;;;;;;18.55;8.98;;;22.40;32.20;;;;;;6126302;28;82982;-72
2022/04/18 04:03:52;;;;;;;17.38;9.70;;;22.40;32.20;;;;;;6136872;28;83882;-73
2022/04/18 04:06:53;;;;;;;17.20;9.15;;;22.40;32.20;;;;;;6137237;28;82840;-72
2022/04/18 04:09:55;;;;;;;16.90;8.95;;;22.40;32.20;;;;;;6132539;28;83009;-72
2022/04/18 04:12:56;;;;;;;19.23;10.02;;;22.40;32.20;;;;;;6126017;28;83544;-72
2022/04/18 04:16:29;;;;;;;15.90;9.18;;;22.40;32.30;;;;;;6133276;28;86327;-72
2022/04/18 04:19:31;;;;;;;16.00;8.93;;;22.40;32.20;;;;;;6138426;28;83122;-71
2022/04/18 04:22:36;;;;;;;16.42;8.90;;;22.30;32.20;;;;;;6136647;28;80876;-72
2022/04/18 04:25:56;;;;;;;16.27;9.18;;;22.40;32.30;;;;;;6137996;28;80330;-72
2022/04/18 04:29:10;;;;;;;18.90;9.68;;;22.40;32.30;;;;;;6136618;28;80783;-73
2022/04/18 04:32:28;;;;;;;14.82;8.60;;;22.40;32.30;;;;;;6114480;28;80173;-72
2022/04/18 04:35:29;;;;;;;15.43;8.75;;;22.40;32.30;;;;;;6117157;28;83206;-72
2022/04/18 04:38:56;;;;;;;15.05;8.80;;;22.40;32.20;;;;;;6114837;28;81519;-72
2022/04/18 04:42:04;;;;;;;14.85;9.13;;;22.30;32.20;;;;;;6129141;28;81957;-72
2022/04/18 04:45:05;;;;;;;15.48;8.88;;;22.40;32.30;;;;;;6136178;28;82028;-74
2022/04/18 04:48:26;;;;;;;16.73;9.20;;;22.40;32.20;;;;;;6137379;28;81613;-72
2022/04/18 04:51:30;;;;;;;17.02;8.65;;;22.40;32.90;;;;;;6125813;28;83067;-72
2022/04/18 04:54:31;;;;;;;16.58;8.23;;;22.40;32.30;;;;;;6111918;28;82804;-71
2022/04/18 04:57:31;;;;;;;15.27;9.05;;;22.30;32.20;;;;;;6131573;28;80683;-72
2022/04/18 05:00:55;;;;;;;17.60;9.55;;;22.40;32.30;;;;;;6138453;28;80453;-71
2022/04/18 05:04:05;;;;;;;15.05;8.68;;;22.40;32.20;;;;;;6133853;28;83873;-72
2022/04/18 05:07:08;;;;;;;16.35;8.75;;;22.40;32.20;;;;;;6124209;28;82848;-71
2022/04/18 05:10:41;;;;;;;14.60;9.07;;;22.40;32.30;;;;;;6093000;28;88146;-72
2022/04/18 05:13:50;;;;;;;15.98;8.75;;;22.30;32.20;;;;;;6093099;28;81615;-72
2022/04/18 05:16:54;;;;;;;16.45;8.82;;;22.40;32.20;;;;;;6113400;28;81123;-72
2022/04/18 05:20:14;;;;;;;14.80;8.65;;;22.40;32.30;;;;;;6132134;28;80435;-72
2022/04/18 05:23:16;;;;;;;17.65;9.45;;;22.40;32.30;;;;;;6135600;28;82995;-72
2022/04/18 05:26:17;;;;;;;13.88;8.38;;;22.40;32.20;;;;;;6134472;28;80303;-74
2022/04/18 05:29:19;;;;;;;17.55;9.90;;;22.40;32.20;;;;;;6111296;28;83182;-72
2022/04/18 05:32:21;;;;;;;16.48;8.88;;;22.40;32.20;;;;;;6117836;28;80821;-72
2022/04/18 05:35:32;;;;;;;17.83;9.02;;;22.40;32.20;;;;;;6111698;28;82689;-73
2022/04/18 05:38:34;;;;;;;19.30;10.00;;;22.40;32.30;;;;;;6111492;28;81557;-73
2022/04/18 05:41:41;;;;;;;20.25;9.38;;;22.40;32.30;;;;;;6111584;28;83102;-72
2022/04/18 05:44:41;;;;;;;18.02;10.25;;;22.40;32.20;;;;;;6135674;28;86007;-72
2022/04/18 05:47:42;;;;;;;18.52;10.27;;;22.40;32.20;;;;;;6132210;28;83084;-72
2022/04/18 05:50:45;;;;;;;21.05;10.43;;;22.40;32.30;;;;;;6132585;28;82967;-71
2022/04/18 05:54:01;;;;;;;17.95;10.35;;;22.40;32.20;;;;;;6111135;28;85844;-72
2022/04/18 05:57:10;;;;;;;17.90;9.23;;;22.40;32.20;;;;;;6107738;28;85061;-73
2022/04/18 06:00:15;;;;;;;18.20;10.43;;;22.40;32.20;;;;;;6111714;28;84522;-72
2022/04/18 06:03:26;;;;;;;23.77;12.05;;;22.40;32.20;;;;;;6121870;28;83047;-73
2022/04/18 06:06:27;;;;;;;22.70;12.63;;;22.40;32.20;;;;;;6131791;28;84154;-72
2022/04/18 06:09:28;;;;;;;22.42;11.48;;;22.40;32.20;;;;;;6131683;28;86009;-73
2022/04/18 06:12:29;;;;;;;21.65;11.75;;;22.40;32.20;;;;;;6131470;28;85835;-73
2022/04/18 06:15:30;;;;;;;22.85;12.80;;;22.40;32.20;;;;;;6133458;28;83021;-73
2022/04/18 06:18:30;;;;;;;21.52;12.38;;;22.40;32.50;;;;;;6118165;28;86149;-73
2022/04/18 06:21:34;;;;;;;22.15;12.25;;;22.40;32.30;;;;;;6107159;28;85747;-73
2022/04/18 06:24:35;;;;;;;20.17;11.88;;;22.40;32.30;;;;;;6107267;28;86294;-73
2022/04/18 06:27:56;;;;;;;24.88;13.77;;;22.40;32.20;;;;;;6114753;28;83991;-73
2022/04/18 06:31:01;;;;;;;23.88;13.00;;;22.40;32.20;;;;;;6108561;28;85310;-73
2022/04/18 06:34:18;;;;;;;25.33;12.63;;;22.40;32.20;;;;;;6106624;28;90271;-72
2022/04/18 06:37:19;;;;;;;22.73;12.75;;;22.50;32.20;;;;;;6106740;28;85660;-72
2022/04/18 06:40:42;;;;;;;23.67;12.27;;;22.50;32.10;;;;;;6107478;28;83245;-73
2022/04/18 06:43:43;;;;;;;24.38;13.30;;;22.50;32.10;;;;;;6106785;28;85455;-73
2022/04/18 06:46:46;;;;;;;23.08;12.93;;;22.50;32.00;;;;;;6107092;28;85456;-73
2022/04/18 06:50:00;;;;;;;25.60;13.27;;;22.60;32.10;;;;;;6106432;28;84099;-73
2022/04/18 06:53:20;;;;;;;21.70;12.07;;;22.60;32.70;;;;;;6106521;28;83494;-72
2022/04/18 06:57:00;;;;;;;20.00;11.52;;;22.60;32.00;;;;;;6106846;28;83079;-72
2022/04/18 07:00:13;;;;;;;25.42;12.60;;;22.60;32.00;;;;;;6108002;28;85535;-72
2022/04/18 07:03:13;;;;;;;21.70;12.02;;;22.60;32.00;;;;;;6092808;28;85755;-73
2022/04/18 07:06:14;;;;;;;21.65;11.32;;;22.70;32.00;;;;;;6106661;28;85252;-72
2022/04/18 07:09:15;;;;;;;20.73;10.50;;;22.70;32.10;;;;;;6101598;28;84736;-72
2022/04/18 07:12:41;;;;;;;;;;;22.70;32.00;;;;;;6136013;28;83033;-73
2022/04/18 07:15:42;;;;;;;19.40;10.80;;;22.70;32.00;;;;;;6119237;28;84195;-73
2022/04/18 07:18:46;;;;;;;19.35;10.00;;;22.70;32.00;;;;;;6106696;28;83186;-73
2022/04/18 07:21:53;;;;;;;19.88;10.95;;;22.70;32.00;;;;;;6106471;28;86100;-73
2022/04/18 07:24:54;;;;;;;18.02;10.18;;;22.70;32.00;;;;;;6119363;28;85818;-74
2022/04/18 07:27:57;;;;;;;18.08;9.98;;;22.70;31.90;;;;;;6130651;28;83997;-74
2022/04/18 07:30:58;;;;;;;18.67;10.05;;;22.70;31.90;;;;;;6108539;28;85731;-74
2022/04/18 07:33:59;;;;;;;17.23;9.82;;;22.80;32.00;;;;;;6106134;28;85594;-74
2022/04/18 07:37:01;;;;;;;17.00;9.75;;;22.70;32.00;;;;;;6109080;28;85549;-73
2022/04/18 07:40:02;;;;;;;15.90;9.13;;;22.80;32.00;;;;;;6121666;28;83323;-73
2022/04/18 07:43:03;;;;;;;19.40;9.40;;;22.80;31.90;;;;;;6132643;28;83512;-74
2022/04/18 07:46:05;;;;;;;17.88;8.95;;;22.80;31.90;;;;;;6113800;28;83172;-74
2022/04/18 07:49:06;;;;;;;16.60;8.98;;;22.80;32.60;;;;;;6111131;28;81448;-73
2022/04/18 07:52:12;;;;;;;14.75;8.20;;;22.80;31.90;;;;;;6133146;28;81820;-73
2022/04/18 07:55:21;;;;;;;15.80;8.50;;;22.80;31.80;;;;;;6120380;28;87752;-72
2022/04/18 07:58:21;;;;;;;15.38;8.70;;;22.80;31.80;;;;;;6108861;28;83170;-74
2022/04/18 08:01:22;;;;;;;14.02;7.68;;;22.90;31.80;;;;;;6112312;28;81761;-73
2022/04/18 08:04:23;;;;;;;14.30;7.68;;;22.90;31.80;;;;;;6108708;28;83349;-72
2022/04/18 08:07:24;;;;;;;14.45;8.15;;;22.90;31.80;;;;;;6114480;28;83621;-72
2022/04/18 08:10:24;;;;;;;13.68;7.65;;;22.90;31.80;;;;;;6132397;28;83426;-72
2022/04/18 08:13:25;;;;;;;12.80;7.78;;;22.90;31.80;;;;;;6132387;28;83346;-73
2022/04/18 08:16:44;;;;;;;13.40;7.72;;;22.90;31.70;;;;;;6114793;28;80338;-72
2022/04/18 08:19:56;;;;;;;14.05;7.28;;;23.00;31.80;;;;;;6112194;28;82204;-72
2022/04/18 08:22:56;;;;;;;12.43;6.88;;;23.00;31.70;;;;;;6132399;28;83074;-72
2022/04/18 08:26:15;;;;;;;11.85;6.72;;;22.90;31.70;;;;;;6120069;28;80422;-73
2022/04/18 08:29:25;;;;;;;11.70;6.57;;;23.00;31.70;;;;;;6107964;28;82012;-73
2022/04/18 08:32:45;;;;;;;14.50;7.60;;;23.00;31.70;;;;;;6108799;28;83529;-72
2022/04/18 08:35:46;;;;;;;11.65;6.80;;;23.00;31.60;;;;;;6116787;28;83581;-73
2022/04/18 08:38:48;;;;;;;12.38;7.00;;;23.00;31.50;;;;;;6132761;28;82938;-73
2022/04/18 08:42:15;;;;;;;12.32;6.68;;;23.00;31.50;;;;;;6123115;28;81233;-74
2022/04/18 08:45:22;;;;;;;11.98;6.78;;;23.00;31.40;;;;;;6133218;28;83099;-73
2022/04/18 08:55:04;;;;;;;10.65;5.82;;;23.00;31.40;;;;;;6136114;28;83465;-72
2022/04/18 08:58:04;;;;;;;10.85;5.78;;;23.10;31.40;;;;;;6113683;28;80460;-73
2022/04/18 09:01:07;;;;;;;10.60;6.07;;;23.10;31.40;;;;;;6120832;28;82968;-72
2022/04/18 09:04:27;;;;;;;8.43;5.25;;;23.00;31.40;;;;;;6136751;28;84614;-72
2022/04/18 09:07:29;;;;;;;10.20;5.43;;;23.10;31.40;;;;;;6135195;28;82809;-71
2022/04/18 09:10:32;;;;;;;10.57;5.70;;;23.10;31.40;;;;;;6136850;28;80295;-72
2022/04/18 09:13:33;;;;;;;9.30;5.07;;;23.10;31.40;;;;;;6135429;28;82945;-72
2022/04/18 09:16:35;;;;;;;9.80;5.40;;;23.10;31.30;;;;;;6126359;28;82149;-72
2022/04/18 09:19:36;;;;;;;9.15;4.72;;;23.10;31.30;;;;;;6132470;28;83246;-72
2022/04/18 09:22:38;;;;;;;9.15;4.97;;;23.20;31.40;;;;;;6119056;28;82539;-72
2022/04/18 09:25:39;;;;;;;9.40;5.00;;;23.10;31.30;;;;;;6113062;28;80467;-72
2022/04/18 09:28:40;;;;;;;10.00;5.28;;;23.10;31.30;;;;;;6111884;28;81927;-73
2022/04/18 09:31:41;;;;;;;8.00;4.38;;;23.10;31.40;;;;;;6117721;28;83028;-73
2022/04/18 09:34:47;;;;;;;8.82;4.55;;;23.00;31.40;;;;;;6135321;28;82853;-73
2022/04/18 09:37:48;;;;;;;9.48;5.22;;;23.00;31.40;;;;;;6135643;28;83065;-73
2022/04/18 09:40:57;;;;;;;8.43;5.25;;;23.00;31.40;;;;;;6135455;28;80528;-73
2022/04/18 09:44:04;;;;;;;7.80;4.40;;;23.00;31.30;;;;;;6110943;28;81887;-73
2022/04/18 09:47:11;;;;;;;7.20;4.38;;;23.00;31.40;;;;;;6119547;28;81474;-74
2022/04/18 09:50:58;;;;;;;10.70;4.75;;;23.00;31.30;;;;;;6139399;28;83387;-72
2022/04/18 09:53:36;;;;;;;9.60;4.82;;;23.00;31.30;;;;;;6115257;28;83276;-72
2022/04/18 09:56:37;;;;;;;7.40;4.47;;;23.10;31.30;;;;;;6113074;28;81128;-73
2022/04/18 09:59:37;;;;;;;10.25;4.57;;;23.10;31.10;;;;;;6116551;28;81879;-73
2022/04/18 10:02:38;;;;;;;6.53;3.97;;;23.20;31.10;;;;;;6127247;28;81444;-73
2022/04/18 10:05:38;;;;;;;11.35;4.95;;;23.20;31.10;;;;;;6112772;28;80592;-73
2022/04/18 10:08:39;;;;;;;7.53;4.18;;;23.20;31.10;;;;;;6112495;28;81394;-73
2022/04/18 10:11:39;;;;;;;7.55;4.03;;;23.20;31.10;;;;;;6111079;28;83307;-73
2022/04/18 10:14:40;;;;;;;7.47;4.25;;;23.20;31.20;;;;;;6136483;28;80785;-73
2022/04/18 10:17:40;;;;;;;6.88;4.13;;;23.20;31.10;;;;;;6136470;28;81321;-73
2022/04/18 10:20:41;;;;;;;6.40;4.45;;;23.20;31.10;;;;;;6134924;28;82407;-73
2022/04/18 10:23:41;;;;;;;7.47;3.92;;;23.20;31.10;;;;;;6122003;28;80160;-73
2022/04/18 10:26:43;;;;;;;7.22;4.22;;;23.20;31.00;;;;;;6112247;28;80280;-73
2022/04/18 10:29:43;;;;;;;6.72;3.97;;;23.20;30.90;;;;;;6131006;28;80766;-74
2022/04/18 10:32:44;;;;;;;6.93;3.72;;;23.10;31.00;;;;;;6129763;28;81851;-73
2022/04/18 10:35:44;;;;;;;4.97;3.40;;;23.10;31.00;;;;;;6111362;28;80648;-74
2022/04/18 10:38:46;;;;;;;6.40;3.40;;;23.20;30.90;;;;;;6122360;28;81740;-74
2022/04/18 10:41:46;;;;;;;6.43;3.80;;;23.20;31.50;;;;;;6135733;28;80426;-74
2022/04/18 10:44:47;;;;;;;5.70;3.78;;;23.20;30.90;;;;;;6115365;28;81017;-74
2022/04/18 10:47:48;;;;;;;6.65;3.85;;;23.20;31.00;;;;;;6130109;28;80600;-73
2022/04/18 10:50:50;;;;;;;6.05;3.60;;;23.20;30.80;;;;;;6110344;28;80212;-73
2022/04/18 10:53:51;;;;;;;4.35;3.10;;;23.20;30.90;;;;;;6121937;28;81007;-74
2022/04/18 10:56:51;;;;;;;5.20;3.55;;;23.20;30.80;;;;;;6135085;28;81399;-72
2022/04/18 10:59:52;;;;;;;6.85;3.75;;;23.20;30.80;;;;;;6134681;28;81370;-73
2022/04/18 11:02:52;;;;;;;6.10;3.60;;;23.20;30.70;;;;;;6133660;28;81874;-75
2022/04/18 11:05:53;;;;;;;5.00;3.25;;;23.30;31.00;;;;;;6110084;28;80501;-74
2022/04/18 11:08:54;;;;;;;7.55;3.63;;;23.30;30.90;;;;;;6119156;28;81822;-73
2022/04/18 11:11:54;;;;;;;4.70;3.08;;;23.40;31.00;;;;;;6134526;28;80752;-73
2022/04/18 11:14:55;;;;;;;5.03;3.22;;;23.40;30.90;;;;;;6117394;28;82227;-74
2022/04/18 11:17:55;;;;;;;5.88;3.28;;;23.40;31.00;;;;;;6111389;28;80484;-74
2022/04/18 11:20:56;;;;;;;6.18;3.45;;;23.40;31.00;;;;;;6111524;28;81094;-73
2022/04/18 11:23:56;;;;;;;4.75;3.17;;;23.40;31.10;;;;;;6114566;28;81322;-74
2022/04/18 11:26:57;;;;;;;5.85;3.15;;;23.40;31.10;;;;;;6135966;28;80404;-74
2022/04/18 11:29:57;;;;;;;4.40;3.13;;;23.30;30.90;;;;;;6135914;28;80712;-74
2022/04/18 11:32:58;;;;;;;4.40;2.95;;;23.30;30.90;;;;;;6135576;28;80516;-74
2022/04/18 11:35:58;;;;;;;6.22;3.38;;;23.30;31.00;;;;;;6134804;28;80698;-74
2022/04/18 11:38:59;;;;;;;3.75;2.83;;;23.30;30.80;;;;;;6130174;28;80503;-74
2022/04/18 11:41:59;;;;;;;6.22;3.10;;;23.30;30.90;;;;;;6116325;28;80953;-74
2022/04/18 11:45:00;;;;;;;4.35;2.63;;;23.30;30.80;;;;;;6135218;28;80370;-74
2022/04/18 11:48:03;;;;;;;5.63;3.30;;;23.30;30.70;;;;;;6133361;28;81298;-75
2022/04/18 11:51:03;;;;;;;5.47;3.20;;;23.30;30.70;;;;;;6114193;28;80606;-73
2022/04/18 11:54:04;;;;;;;4.25;3.15;;;23.30;30.60;;;;;;6126564;28;80112;-74
2022/04/18 11:57:04;;;;;;;8.27;3.13;;;23.20;30.80;;;;;;6110186;28;80574;-74
2022/04/18 12:00:05;;;;;;;4.65;2.80;;;23.30;30.90;;;;;;6119537;28;80886;-73
2022/04/18 12:06:49;;;;;;;4.07;2.85;;;23.40;31.10;;;;;;6127430;28;81252;-74
2022/04/18 12:09:49;;;;;;;5.20;3.28;;;23.40;31.10;;;;;;6109771;28;81310;-73
2022/04/18 12:12:50;;;;;;;4.22;2.75;;;23.40;31.10;;;;;;6109721;28;80958;-73
2022/04/18 12:15:50;;;;;;;4.38;3.10;;;23.40;31.00;;;;;;6108249;28;80549;-75
2022/04/18 12:18:51;;;;;;;5.85;2.97;;;23.40;31.20;;;;;;6113111;28;82505;-74
2022/04/18 12:21:52;;;;;;;4.72;3.13;;;23.30;30.80;;;;;;6130985;28;80337;-74
2022/04/18 12:24:52;;;;;;;4.13;2.65;;;23.30;30.90;;;;;;6133427;28;80403;-74
2022/04/18 12:27:53;;;;;;;4.15;2.83;;;23.30;30.90;;;;;;6114496;28;80911;-75
2022/04/18 12:30:53;;;;;;;3.42;2.55;;;23.30;31.00;;;;;;6126064;28;80879;-74
2022/04/18 12:33:54;;;;;;;4.03;2.40;;;23.30;31.00;;;;;;6138218;28;80469;-75
2022/04/18 12:36:54;;;;;;;5.10;2.80;;;23.30;30.90;;;;;;6119712;28;80613;-74
2022/04/18 12:39:55;;;;;;;3.78;2.60;;;23.20;30.90;;;;;;6116762;28;80375;-74
2022/04/18 12:42:56;;;;;;;4.28;2.78;;;23.20;31.00;;;;;;6137103;28;80472;-73
2022/04/18 12:45:56;;;;;;;3.03;2.47;;;23.20;31.00;;;;;;6128526;28;80784;-75
2022/04/18 12:48:57;;;;;;;3.20;2.08;;;23.20;30.90;;;;;;6122168;28;80404;-75
2022/04/18 12:51:57;;;;;;;3.88;2.40;;;23.20;30.90;;;;;;6137789;28;81654;-74
2022/04/18 12:54:58;;;;;;;3.28;2.67;;;23.20;30.90;;;;;;6137065;28;81721;-74
2022/04/18 12:57:58;;;;;;;4.18;2.42;;;23.20;30.90;;;;;;6138970;28;80459;-76
2022/04/18 13:00:59;;;;;;;3.10;2.30;;;23.20;30.90;;;;;;6136851;28;80615;-74
2022/04/18 13:03:59;;;;;;;4.57;2.70;;;23.10;30.90;;;;;;6121220;28;81423;-75
2022/04/18 13:07:02;;;;;;;3.13;2.17;;;23.20;30.90;;;;;;6128182;28;81450;-74
2022/04/18 13:10:03;;;;;;;4.20;2.67;;;23.20;30.90;;;;;;6137352;28;80526;-74
2022/04/18 13:13:03;;;;;;;3.88;2.30;;;23.10;30.90;;;;;;6135476;28;81468;-75
2022/04/18 13:16:04;;;;;;;3.97;2.55;;;23.10;30.90;;;;;;6137241;28;80549;-75
2022/04/18 13:19:04;;;;;;;3.50;2.13;;;23.10;30.90;;;;;;6137120;28;80317;-74
2022/04/18 13:22:05;;;;;;;3.40;2.33;;;23.10;30.90;;;;;;6136881;28;80477;-74
2022/04/18 13:25:09;;;;;;;5.03;2.22;;;23.10;30.90;;;;;;6135807;28;80402;-74
2022/04/18 13:28:10;;;;;;;4.00;2.80;;;23.10;30.90;;;;;;6135592;28;80589;-74
2022/04/18 13:31:10;;;;;;;3.42;2.20;;;23.10;30.90;;;;;;6132043;28;81560;-73
2022/04/18 13:34:11;;;;;;;2.90;2.20;;;23.10;30.90;;;;;;6116134;28;81401;-75
2022/04/18 13:37:13;;;;;;;3.95;2.90;;;23.10;30.90;;;;;;6123856;28;87049;-74
2022/04/18 13:40:13;;;;;;;3.42;2.13;;;23.00;30.90;;;;;;6112712;28;81918;-74
2022/04/18 13:43:14;;;;;;;3.70;2.28;;;23.00;30.90;;;;;;6112963;28;80053;-73
2022/04/18 13:46:15;;;;;;;3.38;2.22;;;23.00;30.90;;;;;;6126017;28;81003;-74
2022/04/18 13:49:15;;;;;;;4.15;2.78;;;23.00;30.90;;;;;;6112865;28;80853;-74
2022/04/18 13:52:16;;;;;;;4.00;2.42;;;23.10;30.90;;;;;;6112943;28;80150;-73
2022/04/18 13:55:16;;;;;;;4.15;2.35;;;23.10;30.80;;;;;;6112887;28;80642;-72
2022/04/18 13:58:17;;;;;;;2.35;1.80;;;23.10;30.80;;;;;;6113736;28;80517;-72
2022/04/18 14:01:17;;;;;;;2.85;2.33;;;23.10;30.80;;;;;;6126025;28;80708;-74
2022/04/18 14:04:18;;;;;;;2.88;1.90;;;23.10;30.60;;;;;;6112538;28;81111;-75
2022/04/18 14:07:18;;;;;;;4.32;2.40;;;23.20;30.50;;;;;;6120229;28;80395;-72
2022/04/18 14:10:19;;;;;;;3.35;2.38;;;23.20;30.70;;;;;;6138292;28;80216;-72
2022/04/18 14:13:21;;;;;;;3.10;2.30;;;23.20;30.60;;;;;;6136631;28;81484;-74
2022/04/18 14:23:01;;;;;;;5.28;2.80;;;23.30;30.40;;;;;;6125470;28;81082;-73
2022/04/18 14:26:02;;;;;;;3.65;2.00;;;23.30;30.40;;;;;;6111086;28;80366;-74
2022/04/18 14:29:02;;;;;;;3.92;2.38;;;23.30;30.40;;;;;;6111623;28;80632;-74
2022/04/18 14:32:03;;;;;;;2.67;2.15;;;23.30;30.40;;;;;;6112315;28;80984;-75
2022/04/18 14:35:03;;;;;;;4.60;2.35;;;23.30;30.40;;;;;;6112208;28;80381;-74
2022/04/18 14:38:04;;;;;;;3.50;2.28;;;23.30;30.40;;;;;;6110167;28;83282;-74
2022/04/18 14:41:05;;;;;;;3.47;2.03;;;23.30;30.30;;;;;;6111759;28;80759;-74
2022/04/18 14:44:06;;;;;;;2.85;1.92;;;23.30;30.30;;;;;;6111724;28;80893;-74
2022/04/18 14:47:06;;;;;;;3.25;2.20;;;23.30;30.30;;;;;;6111824;28;81376;-73
2022/04/18 14:50:07;;;;;;;4.25;2.40;;;23.30;30.30;;;;;;6121485;28;80491;-74
2022/04/18 14:53:07;;;;;;;3.55;2.53;;;23.30;30.30;;;;;;6134889;28;80793;-69
2022/04/18 14:56:08;;;;;;;3.70;2.20;;;23.30;30.40;;;;;;6134169;28;80868;-69
2022/04/18 14:59:09;;;;;;;3.17;2.13;;;23.30;30.50;;;;;;6134475;28;80900;-82
2022/04/18 15:02:09;;;;;;;4.90;2.30;;;23.30;30.60;;;;;;6143683;28;81096;-75
2022/04/18 15:05:10;;;;;;;2.70;2.20;;;23.30;30.60;;;;;;6102943;28;82007;-73
2022/04/18 15:08:10;;;;;;;3.50;2.10;;;23.30;30.70;;;;;;6125599;28;80278;-74
2022/04/18 15:11:11;;;;;;;3.08;2.20;;;23.30;31.10;;;;;;6133688;28;79885;-72
2022/04/18 15:14:11;;;;;;;15.27;7.28;;;23.30;31.20;;;;;;6134528;28;80806;-77
2022/04/18 15:17:12;;;;;;;183.90;81.55;;;23.20;32.40;;;;;;6150734;28;80404;-71
2022/04/18 15:20:13;;;;;;;219.02;98.07;;;23.20;32.60;;;;;;6118947;28;82911;-75
2022/04/18 15:23:13;;;;;;;346.02;150.82;;;23.20;32.80;;;;;;6111281;28;83352;-73
2022/04/18 15:26:14;;;;;;;338.67;154.18;;;23.20;33.10;;;;;;6129682;28;85247;-73
2022/04/18 15:29:14;;;;;;;471.17;220.57;;;23.30;33.30;;;;;;6118790;28;85372;-74
2022/04/18 15:32:17;;;;;;;360.52;151.25;;;23.30;33.50;;;;;;6122712;28;85379;-70
2022/04/18 15:35:19;;;;;;;281.17;127.18;;;23.30;33.60;;;;;;6112259;28;85905;-71
2022/04/18 15:38:20;;;;;;;317.30;133.30;;;23.30;33.50;;;;;;6105917;28;86000;-69
2022/04/18 15:41:20;;;;;;;244.10;107.72;;;23.40;34.10;;;;;;6128974;28;85429;-70
2022/04/18 15:44:21;;;;;;;203.75;91.75;;;23.40;34.60;;;;;;6123090;28;85584;-72
2022/04/18 15:47:21;;;;;;;193.55;85.90;;;23.40;34.40;;;;;;6127065;28;86376;-72
2022/04/18 15:50:22;;;;;;;177.80;78.13;;;23.40;34.40;;;;;;6124191;28;84249;-74
2022/04/18 15:53:22;;;;;;;165.05;73.07;;;23.30;34.00;;;;;;6137068;28;83615;-72
2022/04/18 15:56:23;;;;;;;144.38;68.45;;;23.30;34.10;;;;;;6123817;28;84306;-71
2022/04/18 15:59:23;;;;;;;134.88;63.35;;;23.30;34.00;;;;;;6119659;28;83586;-76
2022/04/18 16:02:24;;;;;;;137.07;60.08;;;23.30;34.50;;;;;;6138688;28;82919;-72
2022/04/18 16:05:25;;;;;;;135.15;58.47;;;23.30;33.90;;;;;;6135462;28;83376;-73
2022/04/18 16:08:26;;;;;;;112.93;51.67;;;23.30;33.90;;;;;;6132741;28;83512;-75
2022/04/18 16:11:26;;;;;;;116.28;51.78;;;23.30;33.90;;;;;;6136510;28;83433;-74